Time,TemperatureF,DewpointF,PressureIn,WindDirection,WindDirectionDegrees,WindSpeedMPH,WindSpeedGustMPH,Humidity,HourlyPrecipIn,Conditions,Clouds,dailyrainin,SoftwareType,DateUTC
2013-01-07 00:02:00,23.6,18.9,30.32,SSW,203,2.3,2.3,82,0.00,,,0.00,WUHU216HW,2013-01-07 06:02:00,
2013-01-07 00:07:00,23.4,18.7,30.33,SW,225,0.5,2.3,82,0.00,,,0.00,WUHU216HW,2013-01-07 06:07:00,
2013-01-07 00:12:00,23.4,18.7,30.33,SSW,203,0.5,2.3,82,0.00,,,0.00,WUHU216HW,2013-01-07 06:12:00,
2013-01-07 00:17:00,23.2,18.5,30.32,SW,225,0.0,0.5,82,0.00,,,0.00,WUHU216HW,2013-01-07 06:17:00,
2013-01-07 00:22:00,23.0,18.4,30.32,SSW,203,0.5,0.5,82,0.00,,,0.00,WUHU216HW,2013-01-07 06:22:00,
2013-01-07 00:27:00,22.9,18.2,30.33,SSW,209,0.5,0.5,82,0.00,,,0.00,WUHU216HW,2013-01-07 06:27:00,
2013-01-07 00:32:00,22.7,18.0,30.33,WSW,248,0.5,0.5,82,0.00,,,0.00,WUHU216HW,2013-01-07 06:32:00,
2013-01-07 00:37:00,22.7,18.0,30.33,SW,225,0.4,0.9,82,0.00,,,0.00,WUHU216HW,2013-01-07 06:37:00,
2013-01-07 00:42:00,22.5,17.8,30.33,SSW,203,0.9,0.9,82,0.00,,,0.00,WUHU216HW,2013-01-07 06:42:00,
2013-01-07 00:47:00,22.3,17.9,30.33,SW,225,0.6,1.2,83,0.00,,,0.00,WUHU216HW,2013-01-07 06:47:00,
2013-01-07 00:52:00,22.3,17.9,30.33,SSE,158,3.3,3.3,83,0.00,,,0.00,WUHU216HW,2013-01-07 06:52:00,
2013-01-07 00:57:00,22.1,17.7,30.33,SSW,197,1.6,3.3,83,0.00,,,0.00,WUHU216HW,2013-01-07 06:57:00,
2013-01-07 01:02:00,22.0,17.8,30.33,SSW,203,0.5,2.9,84,0.00,,,0.00,WUHU216HW,2013-01-07 07:02:00,
2013-01-07 01:07:00,22.0,17.8,30.33,SW,225,0.5,1.4,84,0.00,,,0.00,WUHU216HW,2013-01-07 07:07:00,
2013-01-07 01:12:00,22.0,17.8,30.34,SSW,203,0.5,1.4,84,0.00,,,0.00,WUHU216HW,2013-01-07 07:12:00,
2013-01-07 01:17:00,21.8,17.6,30.33,SSW,203,2.3,2.3,84,0.00,,,0.00,WUHU216HW,2013-01-07 07:17:00,
2013-01-07 01:22:00,21.6,17.7,30.33,SSW,203,0.9,2.3,85,0.00,,,0.00,WUHU216HW,2013-01-07 07:22:00,
2013-01-07 01:27:00,21.6,17.5,30.33,SSW,203,1.4,2.3,84,0.00,,,0.00,WUHU216HW,2013-01-07 07:27:00,
2013-01-07 01:32:00,21.4,17.6,30.33,SSW,203,0.7,2.1,85,0.00,,,0.00,WUHU216HW,2013-01-07 07:32:00,
2013-01-07 01:37:00,21.4,17.6,30.33,SSW,206,1.2,2.3,85,0.00,,,0.00,WUHU216HW,2013-01-07 07:37:00,
2013-01-07 01:42:00,21.2,17.4,30.33,South,191,1.1,2.3,85,0.00,,,0.00,WUHU216HW,2013-01-07 07:42:00,
2013-01-07 01:47:00,21.2,17.4,30.33,SSW,203,1.7,4.4,85,0.00,,,0.00,WUHU216HW,2013-01-07 07:47:00,
2013-01-07 01:52:00,21.2,17.4,30.33,SSW,196,1.7,4.4,85,0.00,,,0.00,WUHU216HW,2013-01-07 07:52:00,
2013-01-07 01:57:00,21.1,17.2,30.34,South,180,2.3,2.3,85,0.00,,,0.00,WUHU216HW,2013-01-07 07:57:00,
2013-01-07 02:02:00,21.1,17.2,30.34,SSW,203,1.2,2.3,85,0.00,,,0.00,WUHU216HW,2013-01-07 08:02:00,
2013-01-07 02:07:00,20.9,17.0,30.34,South,180,2.1,2.3,85,0.00,,,0.00,WUHU216HW,2013-01-07 08:07:00,
2013-01-07 02:12:00,20.9,17.0,30.34,SSW,192,1.3,2.3,85,0.00,,,0.00,WUHU216HW,2013-01-07 08:12:00,
2013-01-07 02:17:00,20.7,16.8,30.34,South,180,1.7,2.1,85,0.00,,,0.00,WUHU216HW,2013-01-07 08:17:00,
2013-01-07 02:22:00,20.7,16.8,30.35,South,173,1.7,2.9,85,0.00,,,0.00,WUHU216HW,2013-01-07 08:22:00,
2013-01-07 02:27:00,20.5,16.4,30.35,SSE,158,1.4,3.3,84,0.00,,,0.00,WUHU216HW,2013-01-07 08:27:00,
2013-01-07 02:32:00,20.5,16.4,30.35,SSE,158,0.5,3.3,84,0.00,,,0.00,WUHU216HW,2013-01-07 08:32:00,
2013-01-07 02:37:00,20.5,16.4,30.34,SSE,168,2.4,2.9,84,0.00,,,0.00,WUHU216HW,2013-01-07 08:37:00,
2013-01-07 02:42:00,20.3,16.2,30.35,SSE,147,1.5,2.9,84,0.00,,,0.00,WUHU216HW,2013-01-07 08:42:00,
2013-01-07 02:47:00,20.3,16.2,30.35,South,180,2.3,2.6,84,0.00,,,0.00,WUHU216HW,2013-01-07 08:47:00,
2013-01-07 02:52:00,20.2,16.0,30.35,South,180,1.4,3.3,84,0.00,,,0.00,WUHU216HW,2013-01-07 08:52:00,
2013-01-07 02:57:00,20.2,16.0,30.35,South,180,1.2,3.3,84,0.00,,,0.00,WUHU216HW,2013-01-07 08:57:00,
2013-01-07 03:02:00,20.0,15.8,30.35,SSE,158,2.6,2.6,84,0.00,,,0.00,WUHU216HW,2013-01-07 09:02:00,
2013-01-07 03:07:00,20.0,15.8,30.35,South,180,2.3,2.9,84,0.00,,,0.00,WUHU216HW,2013-01-07 09:07:00,
2013-01-07 03:12:00,20.0,15.8,30.34,SSE,158,2.5,3.3,84,0.00,,,0.00,WUHU216HW,2013-01-07 09:12:00,
2013-01-07 03:17:00,19.8,15.7,30.34,South,173,2.1,3.3,84,0.00,,,0.00,WUHU216HW,2013-01-07 09:17:00,
2013-01-07 03:22:00,19.8,15.7,30.34,South,180,2.3,3.3,84,0.00,,,0.00,WUHU216HW,2013-01-07 09:22:00,
2013-01-07 03:27:00,19.8,15.7,30.34,South,180,3.3,4.4,84,0.00,,,0.00,WUHU216HW,2013-01-07 09:27:00,
2013-01-07 03:32:00,19.8,15.9,30.35,SSW,193,1.0,4.4,85,0.00,,,0.00,WUHU216HW,2013-01-07 09:32:00,
2013-01-07 03:37:00,19.6,15.5,30.34,South,170,2.2,3.3,84,0.00,,,0.00,WUHU216HW,2013-01-07 09:37:00,
2013-01-07 03:42:00,19.6,15.5,30.34,South,180,2.1,3.3,84,0.00,,,0.00,WUHU216HW,2013-01-07 09:42:00,
2013-01-07 03:47:00,19.4,15.3,30.34,South,180,3.3,3.3,84,0.00,,,0.00,WUHU216HW,2013-01-07 09:47:00,
2013-01-07 03:52:00,19.4,15.3,30.34,South,180,4.4,4.4,84,0.00,,,0.00,WUHU216HW,2013-01-07 09:52:00,
2013-01-07 03:57:00,19.4,15.6,30.34,SSE,166,2.3,5.2,85,0.00,,,0.00,WUHU216HW,2013-01-07 09:57:00,
2013-01-07 04:02:00,19.4,15.6,30.34,South,180,3.3,5.2,85,0.00,,,0.00,WUHU216HW,2013-01-07 10:02:00,
2013-01-07 04:07:00,19.4,15.6,30.34,South,179,1.8,5.2,85,0.00,,,0.00,WUHU216HW,2013-01-07 10:07:00,
2013-01-07 04:12:00,19.4,15.6,30.35,South,183,2.4,5.2,85,0.00,,,0.00,WUHU216HW,2013-01-07 10:12:00,
2013-01-07 04:17:00,19.3,15.7,30.35,South,184,2.0,3.5,86,0.00,,,0.00,WUHU216HW,2013-01-07 10:17:00,
2013-01-07 04:22:00,19.4,16.1,30.35,South,180,2.1,3.5,87,0.00,,,0.00,WUHU216HW,2013-01-07 10:22:00,
2013-01-07 04:27:00,19.4,15.8,30.35,SSW,195,1.6,3.3,86,0.00,,,0.00,WUHU216HW,2013-01-07 10:27:00,
2013-01-07 04:32:00,19.4,15.8,30.35,SSW,197,2.5,3.3,86,0.00,,,0.00,WUHU216HW,2013-01-07 10:32:00,
2013-01-07 04:37:00,19.3,15.7,30.35,South,184,1.9,3.3,86,0.00,,,0.00,WUHU216HW,2013-01-07 10:37:00,
2013-01-07 04:42:00,19.4,15.8,30.35,SSW,203,3.8,4.4,86,0.00,,,0.00,WUHU216HW,2013-01-07 10:42:00,
2013-01-07 04:47:00,19.4,15.8,30.35,South,180,5.8,6.4,86,0.00,,,0.00,WUHU216HW,2013-01-07 10:47:00,
2013-01-07 04:52:00,19.3,15.7,30.35,South,180,4.4,6.4,86,0.00,,,0.00,WUHU216HW,2013-01-07 10:52:00,
2013-01-07 04:57:00,19.3,15.7,30.34,SSW,203,4.4,5.8,86,0.00,,,0.00,WUHU216HW,2013-01-07 10:57:00,
2013-01-07 05:02:00,19.4,16.1,30.34,South,186,4.2,5.8,87,0.00,,,0.00,WUHU216HW,2013-01-07 11:02:00,
2013-01-07 05:07:00,19.4,15.8,30.34,South,180,2.9,5.8,86,0.00,,,0.00,WUHU216HW,2013-01-07 11:07:00,
2013-01-07 05:12:00,19.4,16.1,30.35,South,186,2.7,6.1,87,0.00,,,0.00,WUHU216HW,2013-01-07 11:12:00,
2013-01-07 05:17:00,19.4,15.8,30.34,South,180,3.2,6.1,86,0.00,,,0.00,WUHU216HW,2013-01-07 11:17:00,
2013-01-07 05:22:00,19.4,15.8,30.35,South,183,2.5,6.4,86,0.00,,,0.00,WUHU216HW,2013-01-07 11:22:00,
2013-01-07 05:27:00,19.4,15.8,30.35,South,180,3.8,6.4,86,0.00,,,0.00,WUHU216HW,2013-01-07 11:27:00,
2013-01-07 05:32:00,19.4,15.8,30.35,SSE,164,5.2,6.1,86,0.00,,,0.00,WUHU216HW,2013-01-07 11:32:00,
2013-01-07 05:37:00,19.4,16.1,30.35,South,183,5.3,7.5,87,0.00,,,0.00,WUHU216HW,2013-01-07 11:37:00,
2013-01-07 05:42:00,19.4,16.1,30.35,South,180,7.0,7.5,87,0.00,,,0.00,WUHU216HW,2013-01-07 11:42:00,
2013-01-07 05:47:00,19.6,16.0,30.35,South,191,3.7,7.0,86,0.00,,,0.00,WUHU216HW,2013-01-07 11:47:00,
2013-01-07 05:52:00,19.4,15.8,30.35,South,178,4.2,7.0,86,0.00,,,0.00,WUHU216HW,2013-01-07 11:52:00,
2013-01-07 05:57:00,19.6,16.0,30.35,South,190,4.4,7.3,86,0.00,,,0.00,WUHU216HW,2013-01-07 11:57:00,
2013-01-07 06:02:00,19.6,16.3,30.35,SSW,198,4.4,8.4,87,0.00,,,0.00,WUHU216HW,2013-01-07 12:02:00,
2013-01-07 06:07:00,19.6,16.3,30.35,South,180,5.2,8.4,87,0.00,,,0.00,WUHU216HW,2013-01-07 12:07:00,
2013-01-07 06:12:00,19.8,16.5,30.35,SE,135,5.8,6.1,87,0.00,,,0.00,WUHU216HW,2013-01-07 12:12:00,
2013-01-07 06:17:00,19.8,16.5,30.35,SSE,158,5.8,9.4,87,0.00,,,0.00,WUHU216HW,2013-01-07 12:17:00,
2013-01-07 06:22:00,19.8,16.2,30.36,SSE,168,3.6,9.4,86,0.00,,,0.00,WUHU216HW,2013-01-07 12:22:00,
2013-01-07 06:27:00,19.8,16.5,30.35,SSW,203,5.2,7.0,87,0.00,,,0.00,WUHU216HW,2013-01-07 12:27:00,
2013-01-07 06:32:00,19.8,16.5,30.35,South,180,5.3,7.0,87,0.00,,,0.00,WUHU216HW,2013-01-07 12:32:00,
2013-01-07 06:37:00,19.8,16.5,30.35,South,186,5.5,9.0,87,0.00,,,0.00,WUHU216HW,2013-01-07 12:37:00,
2013-01-07 06:42:00,19.8,16.5,30.35,SSE,158,9.9,9.9,87,0.00,,,0.00,WUHU216HW,2013-01-07 12:42:00,
2013-01-07 06:47:00,19.8,16.5,30.35,SSE,158,9.0,9.9,87,0.00,,,0.00,WUHU216HW,2013-01-07 12:47:00,
2013-01-07 06:52:00,20.0,16.7,30.35,South,191,5.3,9.9,87,0.00,,,0.00,WUHU216HW,2013-01-07 12:52:00,
2013-01-07 06:57:00,19.8,16.5,30.35,South,175,5.9,9.9,87,0.00,,,0.00,WUHU216HW,2013-01-07 12:57:00,
2013-01-07 07:02:00,19.8,16.5,30.35,SSE,158,4.7,9.9,87,0.00,,,0.00,WUHU216HW,2013-01-07 13:02:00,
2013-01-07 07:07:00,20.0,16.7,30.35,SSW,196,5.9,9.6,87,0.00,,,0.00,WUHU216HW,2013-01-07 13:07:00,
2013-01-07 07:12:00,19.8,16.2,30.34,South,178,4.5,9.6,86,0.00,,,0.00,WUHU216HW,2013-01-07 13:12:00,
2013-01-07 07:17:00,20.0,16.7,30.34,SSW,213,4.7,7.5,87,0.00,,,0.00,WUHU216HW,2013-01-07 13:17:00,
2013-01-07 07:22:00,20.0,16.7,30.35,South,180,7.3,7.5,87,0.00,,,0.00,WUHU216HW,2013-01-07 13:22:00,
2013-01-07 07:27:00,20.2,16.8,30.35,SSW,200,5.2,9.6,87,0.00,,,0.00,WUHU216HW,2013-01-07 13:27:00,
2013-01-07 07:32:00,20.2,16.8,30.34,South,180,7.5,9.6,87,0.00,,,0.00,WUHU216HW,2013-01-07 13:32:00,
2013-01-07 07:37:00,20.3,17.0,30.34,South,171,9.6,11.1,87,0.00,,,0.00,WUHU216HW,2013-01-07 13:37:00,
2013-01-07 07:42:00,20.5,17.2,30.34,SSW,197,5.6,12.2,87,0.00,,,0.00,WUHU216HW,2013-01-07 13:42:00,
2013-01-07 07:47:00,20.9,17.6,30.34,SSW,206,4.5,12.2,87,0.00,,,0.00,WUHU216HW,2013-01-07 13:47:00,
2013-01-07 07:52:00,21.2,17.9,30.34,SSW,199,5.1,9.9,87,0.00,,,0.00,WUHU216HW,2013-01-07 13:52:00,
2013-01-07 07:57:00,21.4,18.1,30.34,SSW,198,5.9,8.4,87,0.00,,,0.00,WUHU216HW,2013-01-07 13:57:00,
2013-01-07 08:02:00,21.6,18.0,30.34,SSW,194,6.0,10.1,86,0.00,,,0.00,WUHU216HW,2013-01-07 14:02:00,
2013-01-07 08:07:00,22.0,18.4,30.34,SSE,158,7.0,10.1,86,0.00,,,0.00,WUHU216HW,2013-01-07 14:07:00,
2013-01-07 08:12:00,22.1,18.5,30.34,SSE,163,7.0,9.9,86,0.00,,,0.00,WUHU216HW,2013-01-07 14:12:00,
2013-01-07 08:17:00,22.5,18.6,30.34,South,191,6.7,9.9,85,0.00,,,0.00,WUHU216HW,2013-01-07 14:17:00,
2013-01-07 08:22:00,22.9,19.0,30.34,SSE,158,6.4,12.0,85,0.00,,,0.00,WUHU216HW,2013-01-07 14:22:00,
2013-01-07 08:27:00,23.4,19.5,30.34,SSW,203,8.2,12.0,85,0.00,,,0.00,WUHU216HW,2013-01-07 14:27:00,
2013-01-07 08:32:00,23.9,20.1,30.34,South,180,4.9,11.3,85,0.00,,,0.00,WUHU216HW,2013-01-07 14:32:00,
2013-01-07 08:37:00,24.5,20.3,30.34,SSW,203,7.0,11.3,84,0.00,,,0.00,WUHU216HW,2013-01-07 14:37:00,
2013-01-07 08:42:00,24.8,20.7,30.34,South,190,8.8,10.5,84,0.00,,,0.00,WUHU216HW,2013-01-07 14:42:00,
2013-01-07 08:47:00,25.6,20.8,30.34,South,180,8.7,10.5,82,0.00,,,0.00,WUHU216HW,2013-01-07 14:47:00,
2013-01-07 08:52:00,25.9,21.2,30.34,SSE,158,9.9,12.0,82,0.00,,,0.00,WUHU216HW,2013-01-07 14:52:00,
2013-01-07 08:57:00,26.5,21.7,30.34,SSW,201,4.8,12.0,82,0.00,,,0.00,WUHU216HW,2013-01-07 14:57:00,
2013-01-07 09:02:00,26.8,21.4,30.35,SSW,201,7.9,12.7,80,0.00,,,0.00,WUHU216HW,2013-01-07 15:02:00,
2013-01-07 09:07:00,27.0,21.3,30.35,SSE,158,16.0,16.0,79,0.00,,,0.00,WUHU216HW,2013-01-07 15:07:00,
2013-01-07 09:12:00,27.4,22.0,30.34,SSE,158,7.5,16.0,80,0.00,,,0.00,WUHU216HW,2013-01-07 15:12:00,
2013-01-07 09:17:00,27.7,22.1,30.34,SSW,200,7.7,16.0,79,0.00,,,0.00,WUHU216HW,2013-01-07 15:17:00,
2013-01-07 09:22:00,28.1,22.4,30.34,SSE,157,9.8,13.6,79,0.00,,,0.00,WUHU216HW,2013-01-07 15:22:00,
2013-01-07 09:27:00,28.6,22.6,30.34,SSW,203,12.0,13.6,78,0.00,,,0.00,WUHU216HW,2013-01-07 15:27:00,
2013-01-07 09:32:00,29.2,23.1,30.34,SSE,158,15.1,15.1,78,0.00,,,0.00,WUHU216HW,2013-01-07 15:32:00,
2013-01-07 09:37:00,29.3,22.7,30.34,SSW,213,5.0,15.1,76,0.00,,,0.00,WUHU216HW,2013-01-07 15:37:00,
2013-01-07 09:42:00,29.9,23.2,30.34,South,182,10.1,16.6,76,0.00,,,0.00,WUHU216HW,2013-01-07 15:42:00,
2013-01-07 09:47:00,30.1,23.4,30.33,SSW,203,5.2,16.6,76,0.00,,,0.00,WUHU216HW,2013-01-07 15:47:00,
2013-01-07 09:52:00,30.6,24.0,30.33,South,180,13.1,17.7,76,0.00,,,0.00,WUHU216HW,2013-01-07 15:52:00,
2013-01-07 09:57:00,31.0,23.9,30.33,SSW,203,4.4,21.8,75,0.00,,,0.00,WUHU216HW,2013-01-07 15:57:00,
2013-01-07 10:02:00,31.3,24.3,30.33,SSW,203,10.8,21.8,75,0.00,,,0.00,WUHU216HW,2013-01-07 16:02:00,
2013-01-07 10:07:00,31.7,24.3,30.33,WSW,248,7.3,10.8,74,0.00,,,0.00,WUHU216HW,2013-01-07 16:07:00,
2013-01-07 10:12:00,31.9,24.2,30.33,SSW,208,5.9,16.6,73,0.00,,,0.00,WUHU216HW,2013-01-07 16:12:00,
2013-01-07 10:17:00,32.2,24.6,30.33,SSW,202,8.1,17.4,73,0.00,,,0.00,WUHU216HW,2013-01-07 16:17:00,
2013-01-07 10:22:00,32.4,24.4,30.32,South,180,16.0,18.1,72,0.00,,,0.00,WUHU216HW,2013-01-07 16:22:00,
2013-01-07 10:27:00,32.4,24.0,30.32,South,180,14.3,18.1,71,0.00,,,0.00,WUHU216HW,2013-01-07 16:27:00,
2013-01-07 10:32:00,32.8,24.4,30.32,SSW,201,8.2,16.0,71,0.00,,,0.00,WUHU216HW,2013-01-07 16:32:00,
2013-01-07 10:37:00,32.8,24.7,30.32,SSW,203,14.8,17.2,72,0.00,,,0.00,WUHU216HW,2013-01-07 16:37:00,
2013-01-07 10:42:00,33.5,25.0,30.32,South,169,9.7,17.2,71,0.00,,,0.00,WUHU216HW,2013-01-07 16:42:00,
2013-01-07 10:47:00,33.7,24.8,30.31,SSW,194,8.5,14.8,70,0.00,,,0.00,WUHU216HW,2013-01-07 16:47:00,
2013-01-07 10:52:00,33.8,25.0,30.31,SSE,158,17.2,17.2,70,0.00,,,0.00,WUHU216HW,2013-01-07 16:52:00,
2013-01-07 10:57:00,34.2,25.0,30.30,SSW,203,9.9,17.2,69,0.00,,,0.00,WUHU216HW,2013-01-07 16:57:00,
2013-01-07 11:02:00,34.6,25.0,30.30,SSW,197,10.0,17.2,68,0.00,,,0.00,WUHU216HW,2013-01-07 17:02:00,
2013-01-07 11:07:00,34.7,25.6,30.29,South,180,19.8,19.8,69,0.00,,,0.00,WUHU216HW,2013-01-07 17:07:00,
2013-01-07 11:12:00,34.7,24.5,30.29,SSW,203,11.6,19.8,66,0.00,,,0.00,WUHU216HW,2013-01-07 17:12:00,
2013-01-07 11:17:00,34.9,25.4,30.28,SSW,203,12.0,17.7,68,0.00,,,0.00,WUHU216HW,2013-01-07 17:17:00,
2013-01-07 11:22:00,34.9,24.7,30.28,South,180,7.8,16.0,66,0.00,,,0.00,WUHU216HW,2013-01-07 17:22:00,
2013-01-07 11:27:00,35.3,25.0,30.27,South,188,5.4,18.6,66,0.00,,,0.00,WUHU216HW,2013-01-07 17:27:00,
2013-01-07 11:32:00,35.8,25.2,30.26,South,180,14.3,18.6,65,0.00,,,0.00,WUHU216HW,2013-01-07 17:32:00,
2013-01-07 11:37:00,35.8,24.5,30.26,SSW,203,12.2,16.6,63,0.00,,,0.00,WUHU216HW,2013-01-07 17:37:00,
2013-01-07 11:42:00,36.0,24.7,30.25,South,185,11.5,14.8,63,0.00,,,0.00,WUHU216HW,2013-01-07 17:42:00,
2013-01-07 11:47:00,36.2,24.9,30.25,SSE,158,17.4,17.4,63,0.00,,,0.00,WUHU216HW,2013-01-07 17:47:00,
2013-01-07 11:52:00,36.4,24.9,30.25,SSW,197,11.5,17.4,63,0.00,,,0.00,WUHU216HW,2013-01-07 17:52:00,
2013-01-07 11:57:00,36.5,25.5,30.24,SSE,166,10.7,17.4,64,0.00,,,0.00,WUHU216HW,2013-01-07 17:57:00,
2013-01-07 12:02:00,36.7,25.3,30.24,SSE,158,14.3,16.0,63,0.00,,,0.00,WUHU216HW,2013-01-07 18:02:00,
2013-01-07 12:07:00,36.9,25.5,30.24,South,180,18.6,18.6,63,0.00,,,0.00,WUHU216HW,2013-01-07 18:07:00,
2013-01-07 12:12:00,37.1,25.7,30.23,SSW,203,20.7,20.7,63,0.00,,,0.00,WUHU216HW,2013-01-07 18:12:00,
2013-01-07 12:17:00,37.1,24.9,30.23,South,180,11.6,20.7,61,0.00,,,0.00,WUHU216HW,2013-01-07 18:17:00,
2013-01-07 12:22:00,37.3,25.0,30.23,SSW,203,12.7,20.7,61,0.00,,,0.00,WUHU216HW,2013-01-07 18:22:00,
2013-01-07 12:27:00,37.4,24.4,30.23,SW,221,9.3,12.7,59,0.00,,,0.00,WUHU216HW,2013-01-07 18:27:00,
2013-01-07 12:32:00,37.4,24.8,30.23,South,177,10.5,12.5,60,0.00,,,0.00,WUHU216HW,2013-01-07 18:32:00,
2013-01-07 12:37:00,37.4,24.4,30.22,South,180,12.2,12.2,59,0.00,,,0.00,WUHU216HW,2013-01-07 18:37:00,
2013-01-07 12:42:00,37.6,24.6,30.22,SSW,203,10.5,13.6,59,0.00,,,0.00,WUHU216HW,2013-01-07 18:42:00,
2013-01-07 12:47:00,37.8,24.8,30.22,SSE,158,16.6,16.6,59,0.00,,,0.00,WUHU216HW,2013-01-07 18:47:00,
2013-01-07 12:52:00,37.8,25.2,30.21,SSW,192,14.8,17.4,60,0.00,,,0.00,WUHU216HW,2013-01-07 18:52:00,
2013-01-07 12:57:00,37.8,24.8,30.21,South,190,8.8,17.4,59,0.00,,,0.00,WUHU216HW,2013-01-07 18:57:00,
2013-01-07 13:02:00,37.8,25.6,30.21,South,173,11.1,16.3,61,0.00,,,0.00,WUHU216HW,2013-01-07 19:02:00,
2013-01-07 13:07:00,38.0,24.9,30.21,South,173,10.2,16.3,59,0.00,,,0.00,WUHU216HW,2013-01-07 19:07:00,
2013-01-07 13:12:00,38.3,24.8,30.20,South,190,9.0,12.0,58,0.00,,,0.00,WUHU216HW,2013-01-07 19:12:00,
2013-01-07 13:17:00,38.3,25.2,30.20,SSW,203,11.1,11.1,59,0.00,,,0.00,WUHU216HW,2013-01-07 19:17:00,
2013-01-07 13:22:00,38.5,25.4,30.20,SSW,203,11.6,14.8,59,0.00,,,0.00,WUHU216HW,2013-01-07 19:22:00,
2013-01-07 13:27:00,38.3,24.4,30.19,SSW,203,14.1,16.9,57,0.00,,,0.00,WUHU216HW,2013-01-07 19:27:00,
2013-01-07 13:32:00,38.2,24.2,30.19,South,180,12.7,16.9,57,0.00,,,0.00,WUHU216HW,2013-01-07 19:32:00,
2013-01-07 13:37:00,38.5,24.1,30.18,South,180,16.4,16.6,56,0.00,,,0.00,WUHU216HW,2013-01-07 19:37:00,
2013-01-07 13:42:00,38.5,24.9,30.18,SSW,198,11.5,16.6,58,0.00,,,0.00,WUHU216HW,2013-01-07 19:42:00,
2013-01-07 13:47:00,38.5,24.1,30.18,South,180,11.1,15.5,56,0.00,,,0.00,WUHU216HW,2013-01-07 19:47:00,
2013-01-07 13:52:00,38.5,24.1,30.18,SW,225,8.2,15.7,56,0.00,,,0.00,WUHU216HW,2013-01-07 19:52:00,
2013-01-07 13:57:00,38.9,24.4,30.18,South,180,19.5,19.5,56,0.00,,,0.00,WUHU216HW,2013-01-07 19:57:00,
2013-01-07 14:02:00,38.7,24.2,30.18,South,180,6.1,19.5,56,0.00,,,0.00,WUHU216HW,2013-01-07 20:02:00,
2013-01-07 14:07:00,38.9,24.4,30.18,SSE,158,12.5,19.5,56,0.00,,,0.00,WUHU216HW,2013-01-07 20:07:00,
2013-01-07 14:12:00,38.7,24.2,30.18,South,182,11.6,15.1,56,0.00,,,0.00,WUHU216HW,2013-01-07 20:12:00,
2013-01-07 14:17:00,38.5,24.1,30.18,South,172,13.1,18.1,56,0.00,,,0.00,WUHU216HW,2013-01-07 20:17:00,
2013-01-07 14:19:00,38.5,24.1,30.18,SSW,199,8.0,18.1,56,0.00,,,0.00,WUHU216HW,2013-01-07 20:19:00,
2013-01-07 14:24:00,38.3,24.4,30.18,SSW,200,13.4,18.1,57,0.00,,,0.00,WUHU216HW,2013-01-07 20:24:00,
2013-01-07 14:29:00,38.2,24.7,30.18,SE,135,12.5,16.6,58,0.00,,,0.00,WUHU216HW,2013-01-07 20:29:00,
2013-01-07 14:34:00,38.3,24.8,30.19,SSW,203,7.8,17.2,58,0.00,,,0.00,WUHU216HW,2013-01-07 20:34:00,
2013-01-07 14:39:00,38.3,24.8,30.19,South,180,9.9,17.2,58,0.00,,,0.00,WUHU216HW,2013-01-07 20:39:00,
2013-01-07 14:44:00,38.5,24.9,30.19,SSW,203,12.7,14.3,58,0.00,,,0.00,WUHU216HW,2013-01-07 20:44:00,
2013-01-07 14:49:00,38.7,25.6,30.19,SSW,203,14.6,14.6,59,0.00,,,0.00,WUHU216HW,2013-01-07 20:49:00,
2013-01-07 14:54:00,38.7,25.6,30.19,South,180,6.6,14.6,59,0.00,,,0.00,WUHU216HW,2013-01-07 20:54:00,
2013-01-07 14:59:00,38.9,25.8,30.20,SSE,164,11.9,14.8,59,0.00,,,0.00,WUHU216HW,2013-01-07 20:59:00,
2013-01-07 15:04:00,38.7,26.0,30.20,SSW,203,10.5,14.8,60,0.00,,,0.00,WUHU216HW,2013-01-07 21:04:00,
2013-01-07 15:09:00,38.7,26.0,30.20,SE,135,9.9,10.5,60,0.00,,,0.00,WUHU216HW,2013-01-07 21:09:00,
2013-01-07 15:14:00,38.7,26.0,30.20,SSW,203,7.0,10.5,60,0.00,,,0.00,WUHU216HW,2013-01-07 21:14:00,
2013-01-07 15:19:00,38.5,25.8,30.20,South,180,9.9,12.5,60,0.00,,,0.00,WUHU216HW,2013-01-07 21:19:00,
2013-01-07 15:24:00,38.5,25.8,30.20,South,180,7.8,12.5,60,0.00,,,0.00,WUHU216HW,2013-01-07 21:24:00,
2013-01-07 15:29:00,38.3,26.0,30.20,South,180,5.6,9.9,61,0.00,,,0.00,WUHU216HW,2013-01-07 21:29:00,
2013-01-07 15:34:00,38.5,26.2,30.20,South,171,5.9,7.8,61,0.00,,,0.00,WUHU216HW,2013-01-07 21:34:00,
2013-01-07 15:39:00,38.3,25.7,30.20,SSW,203,14.8,14.8,60,0.00,,,0.00,WUHU216HW,2013-01-07 21:39:00,
2013-01-07 15:44:00,37.8,25.6,30.20,SSW,200,9.7,16.3,61,0.00,,,0.00,WUHU216HW,2013-01-07 21:44:00,
2013-01-07 15:49:00,37.8,25.9,30.19,South,180,12.2,16.3,62,0.00,,,0.00,WUHU216HW,2013-01-07 21:49:00,
2013-01-07 15:54:00,37.6,25.4,30.20,SSE,158,8.7,13.1,61,0.00,,,0.00,WUHU216HW,2013-01-07 21:54:00,
2013-01-07 15:59:00,37.3,25.5,30.19,SSW,203,9.6,16.3,62,0.00,,,0.00,WUHU216HW,2013-01-07 21:59:00,
2013-01-07 16:04:00,36.9,25.5,30.19,SE,135,14.3,16.3,63,0.00,,,0.00,WUHU216HW,2013-01-07 22:04:00,
2013-01-07 16:09:00,36.7,25.7,30.19,SSW,200,11.9,14.3,64,0.00,,,0.00,WUHU216HW,2013-01-07 22:09:00,
2013-01-07 16:14:00,36.4,25.4,30.18,South,180,12.2,14.3,64,0.00,,,0.00,WUHU216HW,2013-01-07 22:14:00,
2013-01-07 16:19:00,36.4,25.8,30.18,SSE,158,9.0,13.4,65,0.00,,,0.00,WUHU216HW,2013-01-07 22:19:00,
2013-01-07 16:24:00,36.0,25.8,30.18,South,176,8.3,12.2,66,0.00,,,0.00,WUHU216HW,2013-01-07 22:24:00,
2013-01-07 16:29:00,35.6,25.7,30.18,SSE,158,9.9,11.3,67,0.00,,,0.00,WUHU216HW,2013-01-07 22:29:00,
2013-01-07 16:34:00,35.3,25.4,30.18,South,187,6.2,10.5,67,0.00,,,0.00,WUHU216HW,2013-01-07 22:34:00,
2013-01-07 16:39:00,34.9,25.4,30.18,SE,135,10.5,10.5,68,0.00,,,0.00,WUHU216HW,2013-01-07 22:39:00,
2013-01-07 16:44:00,34.7,25.2,30.18,SSE,158,8.4,11.1,68,0.00,,,0.00,WUHU216HW,2013-01-07 22:44:00,
2013-01-07 16:49:00,34.6,25.7,30.18,SSE,158,15.5,15.5,70,0.00,,,0.00,WUHU216HW,2013-01-07 22:49:00,
2013-01-07 16:54:00,34.2,25.4,30.18,South,170,8.9,15.5,70,0.00,,,0.00,WUHU216HW,2013-01-07 22:54:00,
2013-01-07 16:59:00,34.0,25.2,30.17,South,180,7.0,15.5,70,0.00,,,0.00,WUHU216HW,2013-01-07 22:59:00,
2013-01-07 17:04:00,33.8,25.0,30.16,SSE,158,9.4,13.6,70,0.00,,,0.00,WUHU216HW,2013-01-07 23:04:00,
2013-01-07 17:09:00,33.8,25.4,30.17,SSE,158,13.1,16.6,71,0.00,,,0.00,WUHU216HW,2013-01-07 23:09:00,
2013-01-07 17:14:00,33.7,25.2,30.16,South,180,9.9,16.6,71,0.00,,,0.00,WUHU216HW,2013-01-07 23:14:00,
2013-01-07 17:19:00,33.5,25.4,30.16,SSE,158,15.1,15.1,72,0.00,,,0.00,WUHU216HW,2013-01-07 23:19:00,
2013-01-07 17:24:00,33.5,25.4,30.16,SSW,210,8.2,15.1,72,0.00,,,0.00,WUHU216HW,2013-01-07 23:24:00,
2013-01-07 17:29:00,33.5,25.4,30.16,SSE,158,11.1,15.1,72,0.00,,,0.00,WUHU216HW,2013-01-07 23:29:00,
2013-01-07 17:34:00,33.3,25.2,30.16,SSE,153,8.2,12.7,72,0.00,,,0.00,WUHU216HW,2013-01-07 23:34:00,
2013-01-07 17:39:00,33.1,25.4,30.16,South,180,8.2,11.6,73,0.00,,,0.00,WUHU216HW,2013-01-07 23:39:00,
2013-01-07 17:44:00,32.9,25.2,30.16,SSW,193,7.7,9.9,73,0.00,,,0.00,WUHU216HW,2013-01-07 23:44:00,
2013-01-07 17:49:00,32.8,25.4,30.15,SSE,158,13.6,13.6,74,0.00,,,0.00,WUHU216HW,2013-01-07 23:49:00,
2013-01-07 17:54:00,32.6,25.2,30.15,South,173,9.2,14.8,74,0.00,,,0.00,WUHU216HW,2013-01-07 23:54:00,
2013-01-07 17:59:00,32.4,25.4,30.16,SSE,164,9.2,14.8,75,0.00,,,0.00,WUHU216HW,2013-01-07 23:59:00,
2013-01-07 18:04:00,32.4,25.7,30.15,South,175,13.8,16.6,76,0.00,,,0.00,WUHU216HW,2013-01-08 00:04:00,
2013-01-07 18:09:00,32.2,25.5,30.15,SSE,158,12.0,16.6,76,0.00,,,0.00,WUHU216HW,2013-01-08 00:09:00,
2013-01-07 18:14:00,32.0,25.4,30.15,SSE,163,11.6,14.6,76,0.00,,,0.00,WUHU216HW,2013-01-08 00:14:00,
2013-01-07 18:19:00,32.0,25.4,30.15,SSE,158,13.6,14.6,76,0.00,,,0.00,WUHU216HW,2013-01-08 00:19:00,
2013-01-07 18:24:00,32.0,25.7,30.15,SSW,192,9.9,13.6,77,0.00,,,0.00,WUHU216HW,2013-01-08 00:24:00,
2013-01-07 18:29:00,31.9,25.2,30.15,South,180,10.5,13.6,76,0.00,,,0.00,WUHU216HW,2013-01-08 00:29:00,
2013-01-07 18:34:00,31.9,25.5,30.16,South,180,9.9,12.7,77,0.00,,,0.00,WUHU216HW,2013-01-08 00:34:00,
2013-01-07 18:39:00,31.9,25.5,30.16,SSE,158,12.7,12.7,77,0.00,,,0.00,WUHU216HW,2013-01-08 00:39:00,
2013-01-07 18:44:00,31.7,25.3,30.16,SSE,160,7.8,12.7,77,0.00,,,0.00,WUHU216HW,2013-01-08 00:44:00,
2013-01-07 18:49:00,31.7,25.0,30.15,South,180,9.9,13.9,76,0.00,,,0.00,WUHU216HW,2013-01-08 00:49:00,
2013-01-07 18:54:00,31.7,25.3,30.15,South,183,9.6,13.9,77,0.00,,,0.00,WUHU216HW,2013-01-08 00:54:00,
2013-01-07 18:59:00,31.5,25.5,30.15,SSE,158,6.1,12.7,78,0.00,,,0.00,WUHU216HW,2013-01-08 00:59:00,
2013-01-07 19:04:00,31.5,25.1,30.15,South,182,12.2,14.6,77,0.00,,,0.00,WUHU216HW,2013-01-08 01:04:00,
2013-01-07 19:09:00,31.3,25.3,30.15,South,180,13.9,16.9,78,0.00,,,0.00,WUHU216HW,2013-01-08 01:09:00,
2013-01-07 19:14:00,31.3,24.9,30.15,South,190,11.0,16.9,77,0.00,,,0.00,WUHU216HW,2013-01-08 01:14:00,
2013-01-07 19:19:00,31.3,24.9,30.14,South,180,12.7,15.5,77,0.00,,,0.00,WUHU216HW,2013-01-08 01:19:00,
2013-01-07 19:24:00,31.3,25.3,30.14,South,183,11.8,17.4,78,0.00,,,0.00,WUHU216HW,2013-01-08 01:24:00,
2013-01-07 19:29:00,31.3,24.9,30.14,South,180,17.7,17.7,77,0.00,,,0.00,WUHU216HW,2013-01-08 01:29:00,
2013-01-07 19:34:00,31.3,24.9,30.14,SW,225,11.1,17.7,77,0.00,,,0.00,WUHU216HW,2013-01-08 01:34:00,
2013-01-07 19:39:00,31.3,24.9,30.13,SSW,203,13.9,17.7,77,0.00,,,0.00,WUHU216HW,2013-01-08 01:39:00,
2013-01-07 19:44:00,31.3,24.9,30.13,SSE,158,11.1,13.9,77,0.00,,,0.00,WUHU216HW,2013-01-08 01:44:00,
2013-01-07 19:49:00,31.3,24.9,30.13,SSW,203,12.0,13.9,77,0.00,,,0.00,WUHU216HW,2013-01-08 01:49:00,
2013-01-07 19:54:00,31.3,24.9,30.13,SSE,158,9.6,12.7,77,0.00,,,0.00,WUHU216HW,2013-01-08 01:54:00,
2013-01-07 19:59:00,31.3,24.9,30.13,SSE,158,10.5,14.8,77,0.00,,,0.00,WUHU216HW,2013-01-08 01:59:00,
2013-01-07 20:04:00,31.3,24.9,30.13,South,180,13.6,15.1,77,0.00,,,0.00,WUHU216HW,2013-01-08 02:04:00,
2013-01-07 20:09:00,31.1,24.8,30.13,South,180,9.0,15.1,77,0.00,,,0.00,WUHU216HW,2013-01-08 02:09:00,
2013-01-07 20:14:00,31.1,24.8,30.13,SE,135,9.6,13.6,77,0.00,,,0.00,WUHU216HW,2013-01-08 02:14:00,
2013-01-07 20:19:00,31.1,25.1,30.13,South,180,13.4,16.3,78,0.00,,,0.00,WUHU216HW,2013-01-08 02:19:00,
2013-01-07 20:24:00,31.1,25.1,30.13,South,185,9.0,16.3,78,0.00,,,0.00,WUHU216HW,2013-01-08 02:24:00,
2013-01-07 20:29:00,31.0,24.9,30.14,South,180,12.0,13.4,78,0.00,,,0.00,WUHU216HW,2013-01-08 02:29:00,
2013-01-07 20:34:00,31.0,24.9,30.14,SSW,192,6.5,12.0,78,0.00,,,0.00,WUHU216HW,2013-01-08 02:34:00,
2013-01-07 20:39:00,30.8,24.8,30.14,South,180,6.1,12.0,78,0.00,,,0.00,WUHU216HW,2013-01-08 02:39:00,
2013-01-07 20:44:00,30.6,24.6,30.14,South,180,8.2,8.4,78,0.00,,,0.00,WUHU216HW,2013-01-08 02:44:00,
2013-01-07 20:49:00,30.6,24.6,30.15,SSE,158,5.2,9.0,78,0.00,,,0.00,WUHU216HW,2013-01-08 02:49:00,
2013-01-07 20:54:00,30.6,24.6,30.15,SSW,193,6.8,9.0,78,0.00,,,0.00,WUHU216HW,2013-01-08 02:54:00,
2013-01-07 20:59:00,30.4,24.4,30.15,South,180,7.5,7.5,78,0.00,,,0.00,WUHU216HW,2013-01-08 02:59:00,
2013-01-07 21:04:00,30.4,24.4,30.15,SW,225,3.5,7.5,78,0.00,,,0.00,WUHU216HW,2013-01-08 03:04:00,
2013-01-07 21:09:00,30.2,24.2,30.15,SSW,194,5.0,7.5,78,0.00,,,0.00,WUHU216HW,2013-01-08 03:09:00,
2013-01-07 21:14:00,30.1,24.0,30.15,South,175,5.2,7.5,78,0.00,,,0.00,WUHU216HW,2013-01-08 03:14:00,
2013-01-07 21:19:00,30.1,24.0,30.15,SSW,203,7.8,7.8,78,0.00,,,0.00,WUHU216HW,2013-01-08 03:19:00,
2013-01-07 21:24:00,29.9,23.9,30.15,SE,135,7.0,9.0,78,0.00,,,0.00,WUHU216HW,2013-01-08 03:24:00,
2013-01-07 21:29:00,29.9,23.9,30.15,South,180,5.8,9.0,78,0.00,,,0.00,WUHU216HW,2013-01-08 03:29:00,
2013-01-07 21:34:00,29.9,23.9,30.15,South,189,5.7,7.5,78,0.00,,,0.00,WUHU216HW,2013-01-08 03:34:00,
2013-01-07 21:39:00,29.9,23.9,30.16,SSW,203,5.6,7.3,78,0.00,,,0.00,WUHU216HW,2013-01-08 03:39:00,
2013-01-07 21:45:00,29.9,24.1,30.16,SSW,203,7.0,8.2,79,0.00,,,0.00,WUHU216HW,2013-01-08 03:45:00,
2013-01-07 21:50:00,29.9,23.9,30.16,SSW,203,2.9,8.2,78,0.00,,,0.00,WUHU216HW,2013-01-08 03:50:00,
2013-01-07 21:56:00,29.9,23.9,30.16,South,177,5.3,8.7,78,0.00,,,0.00,WUHU216HW,2013-01-08 03:56:00,
2013-01-07 22:01:00,29.9,24.1,30.16,SSW,194,6.7,10.5,79,0.00,,,0.00,WUHU216HW,2013-01-08 04:01:00,
2013-01-07 22:06:00,29.9,24.1,30.16,SSW,203,7.3,10.5,79,0.00,,,0.00,WUHU216HW,2013-01-08 04:06:00,
2013-01-07 22:11:00,29.9,24.1,30.16,South,180,7.0,10.5,79,0.00,,,0.00,WUHU216HW,2013-01-08 04:11:00,
2013-01-07 22:16:00,29.9,23.9,30.16,South,173,5.3,9.0,78,0.00,,,0.00,WUHU216HW,2013-01-08 04:16:00,
2013-01-07 22:21:00,29.9,24.1,30.16,SSW,201,5.3,8.2,79,0.00,,,0.00,WUHU216HW,2013-01-08 04:21:00,
2013-01-07 22:26:00,29.7,23.9,30.16,South,177,7.2,9.0,79,0.00,,,0.00,WUHU216HW,2013-01-08 04:26:00,
2013-01-07 22:31:00,29.7,23.9,30.16,SSW,203,5.6,9.0,79,0.00,,,0.00,WUHU216HW,2013-01-08 04:31:00,
2013-01-07 22:36:00,29.7,23.9,30.15,South,174,5.8,8.2,79,0.00,,,0.00,WUHU216HW,2013-01-08 04:36:00,
2013-01-07 22:41:00,29.7,23.9,30.15,South,190,5.1,7.3,79,0.00,,,0.00,WUHU216HW,2013-01-08 04:41:00,
2013-01-07 22:46:00,29.5,23.5,30.15,South,180,7.0,8.7,78,0.00,,,0.00,WUHU216HW,2013-01-08 04:46:00,
2013-01-07 22:51:00,29.5,23.8,30.15,SSE,158,4.9,8.7,79,0.00,,,0.00,WUHU216HW,2013-01-08 04:51:00,
2013-01-07 22:56:00,29.5,23.8,30.15,SSW,203,3.5,7.5,79,0.00,,,0.00,WUHU216HW,2013-01-08 04:56:00,
2013-01-07 23:01:00,29.5,23.8,30.15,South,180,8.2,8.7,79,0.00,,,0.00,WUHU216HW,2013-01-08 05:01:00,
2013-01-07 23:02:00,29.5,23.8,30.15,SSW,195,4.9,8.7,79,0.00,,,0.00,WUHU216HW,2013-01-08 05:02:00,
2013-01-07 23:03:00,29.5,23.8,30.16,SSW,203,5.6,8.7,79,0.00,,,0.00,WUHU216HW,2013-01-08 05:03:00,
2013-01-07 23:08:00,29.5,23.8,30.16,South,180,5.8,8.2,79,0.00,,,0.00,WUHU216HW,2013-01-08 05:08:00,
2013-01-07 23:13:00,29.3,23.7,30.15,SSE,158,6.6,7.0,79,0.00,,,0.00,WUHU216HW,2013-01-08 05:13:00,
2013-01-07 23:18:00,29.2,23.5,30.15,SSE,158,5.8,7.0,79,0.00,,,0.00,WUHU216HW,2013-01-08 05:18:00,
2013-01-07 23:23:00,29.2,23.5,30.15,SSW,194,4.6,9.0,79,0.00,,,0.00,WUHU216HW,2013-01-08 05:23:00,
2013-01-07 23:28:00,29.2,23.5,30.15,South,183,5.3,9.0,79,0.00,,,0.00,WUHU216HW,2013-01-08 05:28:00,
2013-01-07 23:33:00,29.2,23.5,30.15,South,180,4.9,8.2,79,0.00,,,0.00,WUHU216HW,2013-01-08 05:33:00,
2013-01-07 23:38:00,29.2,23.5,30.15,South,180,6.6,7.3,79,0.00,,,0.00,WUHU216HW,2013-01-08 05:38:00,
2013-01-07 23:43:00,29.2,23.5,30.15,South,180,4.4,7.3,79,0.00,,,0.00,WUHU216HW,2013-01-08 05:43:00,
2013-01-07 23:48:00,29.0,23.3,30.15,SSW,203,1.8,6.6,79,0.00,,,0.00,WUHU216HW,2013-01-08 05:48:00,
2013-01-07 23:54:00,29.0,23.3,30.15,South,175,4.6,7.0,79,0.00,,,0.00,WUHU216HW,2013-01-08 05:54:00,
2013-01-07 23:59:00,28.8,23.1,30.15,SSE,158,4.4,7.0,79,0.00,,,0.00,WUHU216HW,2013-01-08 05:59:00,